sensor_id;sensor_type;location;lat;lon;timestamp;P1;durP1;ratioP1;P2;durP2;ratioP2
68273;SDS011;55104;47.356;19.448;2022-07-15T00:01:09;4.50;;;1.58;;
68273;SDS011;55104;47.356;19.448;2022-07-15T00:04:12;5.13;;;1.50;;
68273;SDS011;55104;47.356;19.448;2022-07-15T00:07:14;6.40;;;1.70;;
68273;SDS011;55104;47.356;19.448;2022-07-15T00:10:16;4.00;;;1.40;;
68273;SDS011;55104;47.356;19.448;2022-07-15T00:13:23;4.03;;;1.35;;
68273;SDS011;55104;47.356;19.448;2022-07-15T00:16:26;6.55;;;1.60;;
68273;SDS011;55104;47.356;19.448;2022-07-15T00:19:29;5.77;;;1.60;;
68273;SDS011;55104;47.356;19.448;2022-07-15T00:22:31;9.98;;;1.40;;
68273;SDS011;55104;47.356;19.448;2022-07-15T00:25:33;11.90;;;1.60;;
68273;SDS011;55104;47.356;19.448;2022-07-15T00:28:35;6.60;;;1.80;;
68273;SDS011;55104;47.356;19.448;2022-07-15T00:31:38;7.05;;;1.40;;
68273;SDS011;55104;47.356;19.448;2022-07-15T00:34:40;8.07;;;1.80;;
68273;SDS011;55104;47.356;19.448;2022-07-15T00:37:42;8.20;;;1.50;;
68273;SDS011;55104;47.356;19.448;2022-07-15T00:40:48;6.22;;;1.80;;
68273;SDS011;55104;47.356;19.448;2022-07-15T00:43:52;5.63;;;2.20;;
68273;SDS011;55104;47.356;19.448;2022-07-15T00:46:54;5.68;;;1.90;;
68273;SDS011;55104;47.356;19.448;2022-07-15T00:49:56;4.67;;;1.47;;
68273;SDS011;55104;47.356;19.448;2022-07-15T00:53:00;7.38;;;1.80;;
68273;SDS011;55104;47.356;19.448;2022-07-15T00:56:07;4.45;;;1.33;;
68273;SDS011;55104;47.356;19.448;2022-07-15T00:59:11;4.60;;;1.58;;
68273;SDS011;55104;47.356;19.448;2022-07-15T01:02:15;4.90;;;1.55;;
68273;SDS011;55104;47.356;19.448;2022-07-15T01:05:18;6.20;;;1.50;;
68273;SDS011;55104;47.356;19.448;2022-07-15T01:08:22;7.40;;;1.60;;
68273;SDS011;55104;47.356;19.448;2022-07-15T01:11:26;4.75;;;1.42;;
68273;SDS011;55104;47.356;19.448;2022-07-15T01:14:28;5.38;;;1.77;;
68273;SDS011;55104;47.356;19.448;2022-07-15T01:17:31;5.43;;;1.60;;
68273;SDS011;55104;47.356;19.448;2022-07-15T01:20:41;4.93;;;1.60;;
68273;SDS011;55104;47.356;19.448;2022-07-15T01:23:44;5.38;;;1.63;;
68273;SDS011;55104;47.356;19.448;2022-07-15T01:27:05;5.07;;;1.33;;
68273;SDS011;55104;47.356;19.448;2022-07-15T01:30:07;9.23;;;1.50;;
68273;SDS011;55104;47.356;19.448;2022-07-15T01:33:10;5.20;;;1.55;;
68273;SDS011;55104;47.356;19.448;2022-07-15T01:36:13;5.73;;;1.50;;
68273;SDS011;55104;47.356;19.448;2022-07-15T01:39:21;5.05;;;1.67;;
68273;SDS011;55104;47.356;19.448;2022-07-15T01:42:40;5.13;;;1.80;;
68273;SDS011;55104;47.356;19.448;2022-07-15T01:45:45;7.85;;;1.45;;
68273;SDS011;55104;47.356;19.448;2022-07-15T01:48:53;4.95;;;1.60;;
68273;SDS011;55104;47.356;19.448;2022-07-15T01:52:20;5.17;;;1.53;;
68273;SDS011;55104;47.356;19.448;2022-07-15T01:55:23;8.10;;;2.00;;
68273;SDS011;55104;47.356;19.448;2022-07-15T01:58:27;6.03;;;1.90;;
68273;SDS011;55104;47.356;19.448;2022-07-15T02:01:30;6.20;;;1.65;;
68273;SDS011;55104;47.356;19.448;2022-07-15T02:04:36;5.78;;;1.90;;
68273;SDS011;55104;47.356;19.448;2022-07-15T02:07:39;5.27;;;1.97;;
68273;SDS011;55104;47.356;19.448;2022-07-15T02:10:43;7.38;;;2.00;;
68273;SDS011;55104;47.356;19.448;2022-07-15T02:13:49;7.70;;;2.10;;
68273;SDS011;55104;47.356;19.448;2022-07-15T02:16:53;6.70;;;1.80;;
68273;SDS011;55104;47.356;19.448;2022-07-15T02:20:03;6.88;;;1.88;;
68273;SDS011;55104;47.356;19.448;2022-07-15T02:23:06;6.13;;;1.73;;
68273;SDS011;55104;47.356;19.448;2022-07-15T02:26:08;6.78;;;1.90;;
68273;SDS011;55104;47.356;19.448;2022-07-15T02:29:11;5.55;;;2.30;;
68273;SDS011;55104;47.356;19.448;2022-07-15T02:32:13;5.80;;;2.00;;
68273;SDS011;55104;47.356;19.448;2022-07-15T02:35:16;7.82;;;2.30;;
68273;SDS011;55104;47.356;19.448;2022-07-15T02:38:19;9.23;;;2.20;;
68273;SDS011;55104;47.356;19.448;2022-07-15T02:41:25;7.00;;;2.30;;
68273;SDS011;55104;47.356;19.448;2022-07-15T02:44:28;6.28;;;2.08;;
68273;SDS011;55104;47.356;19.448;2022-07-15T02:47:31;5.97;;;2.03;;
68273;SDS011;55104;47.356;19.448;2022-07-15T02:50:34;9.68;;;2.30;;
68273;SDS011;55104;47.356;19.448;2022-07-15T02:53:36;6.70;;;2.10;;
68273;SDS011;55104;47.356;19.448;2022-07-15T02:56:43;6.32;;;2.17;;
68273;SDS011;55104;47.356;19.448;2022-07-15T02:59:45;7.50;;;2.10;;
68273;SDS011;55104;47.356;19.448;2022-07-15T03:02:48;6.30;;;2.10;;
68273;SDS011;55104;47.356;19.448;2022-07-15T03:05:52;6.85;;;2.22;;
68273;SDS011;55104;47.356;19.448;2022-07-15T03:08:55;7.63;;;2.37;;
68273;SDS011;55104;47.356;19.448;2022-07-15T03:11:57;5.60;;;2.28;;
68273;SDS011;55104;47.356;19.448;2022-07-15T03:15:00;6.28;;;2.10;;
68273;SDS011;55104;47.356;19.448;2022-07-15T03:18:05;5.70;;;1.80;;
68273;SDS011;55104;47.356;19.448;2022-07-15T03:21:07;5.68;;;2.03;;
68273;SDS011;55104;47.356;19.448;2022-07-15T03:24:11;7.43;;;1.90;;
68273;SDS011;55104;47.356;19.448;2022-07-15T03:27:17;10.18;;;2.35;;
68273;SDS011;55104;47.356;19.448;2022-07-15T03:30:21;9.20;;;2.40;;
68273;SDS011;55104;47.356;19.448;2022-07-15T03:33:24;5.50;;;2.15;;
68273;SDS011;55104;47.356;19.448;2022-07-15T03:36:28;9.20;;;3.30;;
68273;SDS011;55104;47.356;19.448;2022-07-15T03:39:30;7.00;;;2.20;;
68273;SDS011;55104;47.356;19.448;2022-07-15T03:42:33;6.43;;;1.92;;
68273;SDS011;55104;47.356;19.448;2022-07-15T03:45:36;6.28;;;2.00;;
68273;SDS011;55104;47.356;19.448;2022-07-15T03:48:38;6.70;;;2.20;;
68273;SDS011;55104;47.356;19.448;2022-07-15T03:51:41;7.50;;;2.15;;
68273;SDS011;55104;47.356;19.448;2022-07-15T03:54:45;6.87;;;2.20;;
68273;SDS011;55104;47.356;19.448;2022-07-15T03:57:47;9.10;;;2.17;;
68273;SDS011;55104;47.356;19.448;2022-07-15T04:00:49;5.47;;;2.03;;
68273;SDS011;55104;47.356;19.448;2022-07-15T04:03:52;10.57;;;2.17;;
68273;SDS011;55104;47.356;19.448;2022-07-15T04:06:54;5.82;;;2.17;;
68273;SDS011;55104;47.356;19.448;2022-07-15T04:09:58;7.30;;;2.10;;
68273;SDS011;55104;47.356;19.448;2022-07-15T04:13:00;7.88;;;2.10;;
68273;SDS011;55104;47.356;19.448;2022-07-15T04:16:04;7.53;;;2.53;;
68273;SDS011;55104;47.356;19.448;2022-07-15T04:19:08;6.93;;;2.58;;
68273;SDS011;55104;47.356;19.448;2022-07-15T04:22:10;7.55;;;2.30;;
68273;SDS011;55104;47.356;19.448;2022-07-15T04:25:23;9.87;;;2.20;;
68273;SDS011;55104;47.356;19.448;2022-07-15T04:28:26;7.63;;;2.50;;
68273;SDS011;55104;47.356;19.448;2022-07-15T04:31:29;5.75;;;2.40;;
68273;SDS011;55104;47.356;19.448;2022-07-15T04:34:41;6.38;;;2.40;;
68273;SDS011;55104;47.356;19.448;2022-07-15T04:37:44;9.35;;;2.60;;
68273;SDS011;55104;47.356;19.448;2022-07-15T04:40:46;11.27;;;2.57;;
68273;SDS011;55104;47.356;19.448;2022-07-15T04:43:50;8.15;;;2.63;;
68273;SDS011;55104;47.356;19.448;2022-07-15T04:46:53;5.90;;;2.40;;
68273;SDS011;55104;47.356;19.448;2022-07-15T04:50:15;12.10;;;2.92;;
68273;SDS011;55104;47.356;19.448;2022-07-15T04:53:36;10.50;;;3.40;;
68273;SDS011;55104;47.356;19.448;2022-07-15T04:56:39;7.90;;;2.63;;
68273;SDS011;55104;47.356;19.448;2022-07-15T04:59:42;9.32;;;2.42;;
68273;SDS011;55104;47.356;19.448;2022-07-15T05:02:49;8.90;;;2.65;;
68273;SDS011;55104;47.356;19.448;2022-07-15T05:05:51;14.15;;;3.05;;
68273;SDS011;55104;47.356;19.448;2022-07-15T05:09:00;9.32;;;3.35;;
68273;SDS011;55104;47.356;19.448;2022-07-15T05:12:07;11.40;;;2.67;;
68273;SDS011;55104;47.356;19.448;2022-07-15T05:15:20;7.85;;;2.65;;
68273;SDS011;55104;47.356;19.448;2022-07-15T05:18:22;7.65;;;2.50;;
68273;SDS011;55104;47.356;19.448;2022-07-15T05:21:27;9.40;;;2.85;;
68273;SDS011;55104;47.356;19.448;2022-07-15T05:24:30;12.35;;;2.95;;
68273;SDS011;55104;47.356;19.448;2022-07-15T05:27:34;8.53;;;2.47;;
68273;SDS011;55104;47.356;19.448;2022-07-15T05:30:37;8.93;;;2.70;;
68273;SDS011;55104;47.356;19.448;2022-07-15T05:33:42;11.57;;;2.38;;
68273;SDS011;55104;47.356;19.448;2022-07-15T05:36:45;6.95;;;2.60;;
68273;SDS011;55104;47.356;19.448;2022-07-15T05:39:50;8.05;;;1.98;;
68273;SDS011;55104;47.356;19.448;2022-07-15T05:43:09;6.63;;;1.97;;
68273;SDS011;55104;47.356;19.448;2022-07-15T05:46:14;9.60;;;2.20;;
68273;SDS011;55104;47.356;19.448;2022-07-15T05:49:23;10.85;;;2.38;;
68273;SDS011;55104;47.356;19.448;2022-07-15T05:52:28;8.52;;;2.28;;
68273;SDS011;55104;47.356;19.448;2022-07-15T05:55:31;7.50;;;1.73;;
68273;SDS011;55104;47.356;19.448;2022-07-15T05:58:33;7.03;;;1.90;;
68273;SDS011;55104;47.356;19.448;2022-07-15T06:01:36;7.03;;;1.95;;
68273;SDS011;55104;47.356;19.448;2022-07-15T06:04:38;9.05;;;2.00;;
68273;SDS011;55104;47.356;19.448;2022-07-15T06:07:41;5.95;;;1.95;;
68273;SDS011;55104;47.356;19.448;2022-07-15T06:10:45;5.47;;;1.60;;
68273;SDS011;55104;47.356;19.448;2022-07-15T06:13:48;6.17;;;1.27;;
68273;SDS011;55104;47.356;19.448;2022-07-15T06:16:50;4.68;;;1.10;;
68273;SDS011;55104;47.356;19.448;2022-07-15T06:19:53;4.00;;;1.30;;
68273;SDS011;55104;47.356;19.448;2022-07-15T06:22:55;5.10;;;1.02;;
68273;SDS011;55104;47.356;19.448;2022-07-15T06:25:57;5.05;;;1.27;;
68273;SDS011;55104;47.356;19.448;2022-07-15T06:29:00;4.87;;;1.07;;
68273;SDS011;55104;47.356;19.448;2022-07-15T06:32:02;4.28;;;1.30;;
68273;SDS011;55104;47.356;19.448;2022-07-15T06:35:05;4.53;;;1.40;;
68273;SDS011;55104;47.356;19.448;2022-07-15T06:38:08;3.78;;;1.30;;
68273;SDS011;55104;47.356;19.448;2022-07-15T06:41:10;4.82;;;1.80;;
68273;SDS011;55104;47.356;19.448;2022-07-15T06:44:13;5.03;;;1.67;;
68273;SDS011;55104;47.356;19.448;2022-07-15T06:47:18;4.20;;;1.40;;
68273;SDS011;55104;47.356;19.448;2022-07-15T06:50:20;5.53;;;1.67;;
68273;SDS011;55104;47.356;19.448;2022-07-15T06:53:26;4.88;;;1.48;;
68273;SDS011;55104;47.356;19.448;2022-07-15T06:56:29;6.18;;;1.90;;
68273;SDS011;55104;47.356;19.448;2022-07-15T06:59:31;4.53;;;1.57;;
68273;SDS011;55104;47.356;19.448;2022-07-15T07:02:34;5.82;;;1.80;;
68273;SDS011;55104;47.356;19.448;2022-07-15T07:05:57;7.00;;;1.70;;
68273;SDS011;55104;47.356;19.448;2022-07-15T07:09:19;5.35;;;1.83;;
68273;SDS011;55104;47.356;19.448;2022-07-15T07:12:21;7.25;;;1.92;;
68273;SDS011;55104;47.356;19.448;2022-07-15T07:15:23;6.23;;;1.60;;
68273;SDS011;55104;47.356;19.448;2022-07-15T07:18:26;5.60;;;2.03;;
68273;SDS011;55104;47.356;19.448;2022-07-15T07:21:28;5.38;;;1.90;;
68273;SDS011;55104;47.356;19.448;2022-07-15T07:24:33;7.68;;;1.90;;
68273;SDS011;55104;47.356;19.448;2022-07-15T07:27:35;6.65;;;2.22;;
68273;SDS011;55104;47.356;19.448;2022-07-15T07:30:37;6.27;;;2.20;;
68273;SDS011;55104;47.356;19.448;2022-07-15T07:33:39;6.15;;;2.00;;
68273;SDS011;55104;47.356;19.448;2022-07-15T07:36:42;6.13;;;2.13;;
68273;SDS011;55104;47.356;19.448;2022-07-15T07:39:46;5.80;;;2.40;;
68273;SDS011;55104;47.356;19.448;2022-07-15T07:42:48;6.68;;;2.13;;
68273;SDS011;55104;47.356;19.448;2022-07-15T07:45:50;6.33;;;2.20;;
68273;SDS011;55104;47.356;19.448;2022-07-15T07:48:53;6.05;;;2.83;;
68273;SDS011;55104;47.356;19.448;2022-07-15T07:52:15;6.75;;;2.30;;
68273;SDS011;55104;47.356;19.448;2022-07-15T07:55:17;7.07;;;2.55;;
68273;SDS011;55104;47.356;19.448;2022-07-15T07:58:20;6.55;;;3.00;;
68273;SDS011;55104;47.356;19.448;2022-07-15T08:01:22;6.10;;;2.47;;
68273;SDS011;55104;47.356;19.448;2022-07-15T08:04:24;7.65;;;2.60;;
68273;SDS011;55104;47.356;19.448;2022-07-15T08:07:26;7.22;;;2.83;;
68273;SDS011;55104;47.356;19.448;2022-07-15T08:10:29;6.47;;;2.40;;
68273;SDS011;55104;47.356;19.448;2022-07-15T08:13:32;6.20;;;2.17;;
68273;SDS011;55104;47.356;19.448;2022-07-15T08:16:34;5.60;;;2.37;;
68273;SDS011;55104;47.356;19.448;2022-07-15T08:19:36;6.63;;;2.42;;
68273;SDS011;55104;47.356;19.448;2022-07-15T08:22:39;6.53;;;2.40;;
68273;SDS011;55104;47.356;19.448;2022-07-15T08:25:41;6.55;;;2.53;;
68273;SDS011;55104;47.356;19.448;2022-07-15T08:28:43;9.57;;;2.70;;
68273;SDS011;55104;47.356;19.448;2022-07-15T08:32:05;7.27;;;2.73;;
68273;SDS011;55104;47.356;19.448;2022-07-15T08:35:08;6.20;;;2.95;;
68273;SDS011;55104;47.356;19.448;2022-07-15T08:38:17;8.13;;;3.08;;
68273;SDS011;55104;47.356;19.448;2022-07-15T08:41:20;6.15;;;2.58;;
68273;SDS011;55104;47.356;19.448;2022-07-15T08:44:22;7.13;;;2.58;;
68273;SDS011;55104;47.356;19.448;2022-07-15T08:47:24;6.23;;;2.97;;
68273;SDS011;55104;47.356;19.448;2022-07-15T08:50:47;6.75;;;3.08;;
68273;SDS011;55104;47.356;19.448;2022-07-15T08:53:50;6.47;;;2.92;;
68273;SDS011;55104;47.356;19.448;2022-07-15T08:56:54;7.25;;;3.30;;
68273;SDS011;55104;47.356;19.448;2022-07-15T08:59:56;6.57;;;2.90;;
68273;SDS011;55104;47.356;19.448;2022-07-15T09:02:59;7.13;;;3.03;;
68273;SDS011;55104;47.356;19.448;2022-07-15T09:06:02;7.50;;;3.10;;
68273;SDS011;55104;47.356;19.448;2022-07-15T09:12:27;9.35;;;2.80;;
68273;SDS011;55104;47.356;19.448;2022-07-15T09:15:43;7.05;;;3.40;;
68273;SDS011;55104;47.356;19.448;2022-07-15T09:18:46;8.47;;;3.30;;
68273;SDS011;55104;47.356;19.448;2022-07-15T09:21:59;6.20;;;3.10;;
68273;SDS011;55104;47.356;19.448;2022-07-15T09:25:05;8.57;;;3.20;;
68273;SDS011;55104;47.356;19.448;2022-07-15T09:28:09;8.38;;;2.63;;
68273;SDS011;55104;47.356;19.448;2022-07-15T09:31:11;8.35;;;3.35;;
68273;SDS011;55104;47.356;19.448;2022-07-15T09:34:33;12.50;;;3.30;;
68273;SDS011;55104;47.356;19.448;2022-07-15T09:37:54;7.75;;;3.25;;
68273;SDS011;55104;47.356;19.448;2022-07-15T09:40:57;7.18;;;3.00;;
68273;SDS011;55104;47.356;19.448;2022-07-15T09:44:00;10.63;;;3.28;;
68273;SDS011;55104;47.356;19.448;2022-07-15T09:47:04;9.43;;;3.70;;
68273;SDS011;55104;47.356;19.448;2022-07-15T09:50:32;8.77;;;3.60;;
68273;SDS011;55104;47.356;19.448;2022-07-15T09:53:36;10.73;;;3.25;;
68273;SDS011;55104;47.356;19.448;2022-07-15T09:56:39;7.40;;;3.20;;
68273;SDS011;55104;47.356;19.448;2022-07-15T09:59:42;8.73;;;3.67;;
68273;SDS011;55104;47.356;19.448;2022-07-15T10:02:45;8.38;;;3.33;;
68273;SDS011;55104;47.356;19.448;2022-07-15T10:05:49;8.13;;;3.73;;
68273;SDS011;55104;47.356;19.448;2022-07-15T10:08:54;6.63;;;3.33;;
68273;SDS011;55104;47.356;19.448;2022-07-15T10:12:07;8.73;;;3.58;;
68273;SDS011;55104;47.356;19.448;2022-07-15T10:15:33;9.93;;;3.75;;
68273;SDS011;55104;47.356;19.448;2022-07-15T10:19:10;7.93;;;3.92;;
68273;SDS011;55104;47.356;19.448;2022-07-15T10:29:03;9.30;;;3.97;;
68273;SDS011;55104;47.356;19.448;2022-07-15T10:32:07;8.98;;;3.85;;
68273;SDS011;55104;47.356;19.448;2022-07-15T10:35:33;12.27;;;3.67;;
68273;SDS011;55104;47.356;19.448;2022-07-15T10:39:00;13.90;;;3.80;;
68273;SDS011;55104;47.356;19.448;2022-07-15T10:42:05;6.90;;;3.55;;
68273;SDS011;55104;47.356;19.448;2022-07-15T10:45:08;11.38;;;3.63;;
68273;SDS011;55104;47.356;19.448;2022-07-15T10:48:27;10.10;;;3.78;;
68273;SDS011;55104;47.356;19.448;2022-07-15T10:54:39;9.13;;;4.20;;
68273;SDS011;55104;47.356;19.448;2022-07-15T10:57:49;6.93;;;3.47;;
68273;SDS011;55104;47.356;19.448;2022-07-15T11:00:54;7.28;;;4.05;;
68273;SDS011;55104;47.356;19.448;2022-07-15T11:07:26;9.27;;;4.13;;
68273;SDS011;55104;47.356;19.448;2022-07-15T11:10:30;7.50;;;3.30;;
68273;SDS011;55104;47.356;19.448;2022-07-15T11:13:33;8.23;;;3.90;;
68273;SDS011;55104;47.356;19.448;2022-07-15T11:16:35;7.15;;;3.88;;
68273;SDS011;55104;47.356;19.448;2022-07-15T11:19:38;10.07;;;4.60;;
68273;SDS011;55104;47.356;19.448;2022-07-15T11:22:45;8.57;;;3.78;;
68273;SDS011;55104;47.356;19.448;2022-07-15T11:25:49;9.13;;;4.00;;
68273;SDS011;55104;47.356;19.448;2022-07-15T11:28:52;8.18;;;4.25;;
68273;SDS011;55104;47.356;19.448;2022-07-15T11:32:01;7.68;;;4.05;;
68273;SDS011;55104;47.356;19.448;2022-07-15T11:35:04;14.25;;;5.18;;
68273;SDS011;55104;47.356;19.448;2022-07-15T11:38:06;7.55;;;4.10;;
68273;SDS011;55104;47.356;19.448;2022-07-15T11:41:08;8.70;;;4.10;;
68273;SDS011;55104;47.356;19.448;2022-07-15T11:44:35;8.75;;;3.85;;
68273;SDS011;55104;47.356;19.448;2022-07-15T11:47:49;8.10;;;4.30;;
68273;SDS011;55104;47.356;19.448;2022-07-15T11:50:54;11.60;;;4.30;;
68273;SDS011;55104;47.356;19.448;2022-07-15T11:53:57;11.38;;;4.70;;
68273;SDS011;55104;47.356;19.448;2022-07-15T11:57:01;9.17;;;4.40;;
68273;SDS011;55104;47.356;19.448;2022-07-15T12:00:06;8.25;;;4.72;;
68273;SDS011;55104;47.356;19.448;2022-07-15T12:03:12;10.05;;;4.50;;
68273;SDS011;55104;47.356;19.448;2022-07-15T12:06:15;9.80;;;4.32;;
68273;SDS011;55104;47.356;19.448;2022-07-15T12:09:19;12.05;;;4.60;;
68273;SDS011;55104;47.356;19.448;2022-07-15T12:12:22;12.53;;;4.53;;
68273;SDS011;55104;47.356;19.448;2022-07-15T12:15:24;9.75;;;4.30;;
68273;SDS011;55104;47.356;19.448;2022-07-15T12:18:27;7.97;;;4.25;;
68273;SDS011;55104;47.356;19.448;2022-07-15T12:21:29;7.78;;;3.80;;
68273;SDS011;55104;47.356;19.448;2022-07-15T12:24:38;9.45;;;4.07;;
68273;SDS011;55104;47.356;19.448;2022-07-15T12:27:42;10.33;;;3.90;;
68273;SDS011;55104;47.356;19.448;2022-07-15T12:30:46;7.63;;;4.05;;
68273;SDS011;55104;47.356;19.448;2022-07-15T12:33:50;10.57;;;4.13;;
68273;SDS011;55104;47.356;19.448;2022-07-15T12:36:56;10.43;;;4.05;;
68273;SDS011;55104;47.356;19.448;2022-07-15T12:43:02;8.90;;;3.60;;
68273;SDS011;55104;47.356;19.448;2022-07-15T12:46:05;7.22;;;3.35;;
68273;SDS011;55104;47.356;19.448;2022-07-15T12:49:08;7.93;;;3.28;;
68273;SDS011;55104;47.356;19.448;2022-07-15T12:52:23;8.18;;;3.35;;
68273;SDS011;55104;47.356;19.448;2022-07-15T12:55:57;11.20;;;4.45;;
68273;SDS011;55104;47.356;19.448;2022-07-15T12:59:03;8.60;;;3.57;;
68273;SDS011;55104;47.356;19.448;2022-07-15T13:02:05;8.43;;;4.03;;
68273;SDS011;55104;47.356;19.448;2022-07-15T13:05:07;8.98;;;3.33;;
68273;SDS011;55104;47.356;19.448;2022-07-15T13:11:13;7.40;;;3.10;;
68273;SDS011;55104;47.356;19.448;2022-07-15T13:14:15;7.27;;;2.60;;
68273;SDS011;55104;47.356;19.448;2022-07-15T13:17:18;8.25;;;2.72;;
68273;SDS011;55104;47.356;19.448;2022-07-15T13:20:20;8.77;;;2.75;;
68273;SDS011;55104;47.356;19.448;2022-07-15T13:23:22;9.70;;;3.20;;
68273;SDS011;55104;47.356;19.448;2022-07-15T13:26:25;8.63;;;2.40;;
68273;SDS011;55104;47.356;19.448;2022-07-15T13:29:27;6.00;;;2.00;;
68273;SDS011;55104;47.356;19.448;2022-07-15T13:32:29;5.13;;;2.08;;
68273;SDS011;55104;47.356;19.448;2022-07-15T13:35:32;7.93;;;2.63;;
68273;SDS011;55104;47.356;19.448;2022-07-15T13:38:35;7.45;;;2.08;;
68273;SDS011;55104;47.356;19.448;2022-07-15T13:41:37;6.32;;;2.30;;
68273;SDS011;55104;47.356;19.448;2022-07-15T13:44:40;5.53;;;1.87;;
68273;SDS011;55104;47.356;19.448;2022-07-15T13:47:42;4.40;;;1.42;;
68273;SDS011;55104;47.356;19.448;2022-07-15T13:50:44;5.03;;;1.50;;
68273;SDS011;55104;47.356;19.448;2022-07-15T13:54:09;6.47;;;1.42;;
68273;SDS011;55104;47.356;19.448;2022-07-15T13:57:12;6.72;;;1.60;;
68273;SDS011;55104;47.356;19.448;2022-07-15T14:00:16;5.37;;;1.47;;
68273;SDS011;55104;47.356;19.448;2022-07-15T14:03:19;7.20;;;1.70;;
68273;SDS011;55104;47.356;19.448;2022-07-15T14:06:22;6.80;;;1.75;;
68273;SDS011;55104;47.356;19.448;2022-07-15T14:09:25;5.75;;;1.60;;
68273;SDS011;55104;47.356;19.448;2022-07-15T14:12:27;6.03;;;1.60;;
68273;SDS011;55104;47.356;19.448;2022-07-15T14:15:29;6.47;;;1.50;;
68273;SDS011;55104;47.356;19.448;2022-07-15T14:18:39;4.50;;;1.42;;
68273;SDS011;55104;47.356;19.448;2022-07-15T14:21:50;24.83;;;3.50;;
68273;SDS011;55104;47.356;19.448;2022-07-15T14:24:55;10.20;;;2.83;;
68273;SDS011;55104;47.356;19.448;2022-07-15T14:27:57;24.17;;;3.70;;
68273;SDS011;55104;47.356;19.448;2022-07-15T14:30:59;28.33;;;4.83;;
68273;SDS011;55104;47.356;19.448;2022-07-15T14:34:01;8.05;;;1.70;;
68273;SDS011;55104;47.356;19.448;2022-07-15T14:37:04;4.82;;;1.60;;
68273;SDS011;55104;47.356;19.448;2022-07-15T14:40:26;7.22;;;1.70;;
68273;SDS011;55104;47.356;19.448;2022-07-15T14:43:28;4.70;;;1.30;;
68273;SDS011;55104;47.356;19.448;2022-07-15T14:46:30;7.20;;;1.30;;
68273;SDS011;55104;47.356;19.448;2022-07-15T14:49:33;5.18;;;1.75;;
68273;SDS011;55104;47.356;19.448;2022-07-15T14:52:35;7.68;;;2.60;;
68273;SDS011;55104;47.356;19.448;2022-07-15T14:55:43;9.38;;;1.88;;
68273;SDS011;55104;47.356;19.448;2022-07-15T14:58:45;5.28;;;2.00;;
68273;SDS011;55104;47.356;19.448;2022-07-15T15:01:48;7.87;;;1.80;;
68273;SDS011;55104;47.356;19.448;2022-07-15T15:04:51;4.40;;;1.50;;
68273;SDS011;55104;47.356;19.448;2022-07-15T15:07:53;6.93;;;1.63;;
68273;SDS011;55104;47.356;19.448;2022-07-15T15:10:55;6.20;;;1.48;;
68273;SDS011;55104;47.356;19.448;2022-07-15T15:13:57;6.15;;;2.22;;
68273;SDS011;55104;47.356;19.448;2022-07-15T15:16:59;6.93;;;1.47;;
68273;SDS011;55104;47.356;19.448;2022-07-15T15:20:05;4.43;;;1.20;;
68273;SDS011;55104;47.356;19.448;2022-07-15T15:23:08;5.43;;;1.35;;
68273;SDS011;55104;47.356;19.448;2022-07-15T15:26:10;4.07;;;1.15;;
68273;SDS011;55104;47.356;19.448;2022-07-15T15:29:26;8.75;;;1.30;;
68273;SDS011;55104;47.356;19.448;2022-07-15T15:32:29;5.13;;;1.40;;
68273;SDS011;55104;47.356;19.448;2022-07-15T15:35:31;4.93;;;1.23;;
68273;SDS011;55104;47.356;19.448;2022-07-15T15:38:34;5.13;;;1.30;;
68273;SDS011;55104;47.356;19.448;2022-07-15T15:41:36;5.38;;;1.42;;
68273;SDS011;55104;47.356;19.448;2022-07-15T15:44:38;4.40;;;1.20;;
68273;SDS011;55104;47.356;19.448;2022-07-15T15:47:41;6.17;;;1.63;;
68273;SDS011;55104;47.356;19.448;2022-07-15T15:50:43;5.20;;;1.40;;
68273;SDS011;55104;47.356;19.448;2022-07-15T15:53:45;6.43;;;1.35;;
68273;SDS011;55104;47.356;19.448;2022-07-15T15:56:48;6.13;;;1.60;;
68273;SDS011;55104;47.356;19.448;2022-07-15T15:59:50;4.10;;;1.35;;
68273;SDS011;55104;47.356;19.448;2022-07-15T16:02:53;5.27;;;1.10;;
68273;SDS011;55104;47.356;19.448;2022-07-15T16:05:55;5.18;;;1.20;;
68273;SDS011;55104;47.356;19.448;2022-07-15T16:08:57;5.18;;;1.30;;
68273;SDS011;55104;47.356;19.448;2022-07-15T16:12:00;5.53;;;0.88;;
68273;SDS011;55104;47.356;19.448;2022-07-15T16:15:02;6.38;;;1.30;;
68273;SDS011;55104;47.356;19.448;2022-07-15T16:18:05;5.43;;;0.97;;
68273;SDS011;55104;47.356;19.448;2022-07-15T16:21:08;5.13;;;1.50;;
68273;SDS011;55104;47.356;19.448;2022-07-15T16:24:10;3.33;;;1.08;;
68273;SDS011;55104;47.356;19.448;2022-07-15T16:27:12;5.13;;;1.30;;
68273;SDS011;55104;47.356;19.448;2022-07-15T16:30:15;4.53;;;1.20;;
68273;SDS011;55104;47.356;19.448;2022-07-15T16:33:26;4.60;;;1.40;;
68273;SDS011;55104;47.356;19.448;2022-07-15T16:36:28;3.95;;;1.30;;
68273;SDS011;55104;47.356;19.448;2022-07-15T16:39:30;4.63;;;1.20;;
68273;SDS011;55104;47.356;19.448;2022-07-15T16:42:32;8.63;;;1.70;;
68273;SDS011;55104;47.356;19.448;2022-07-15T16:45:35;5.05;;;1.30;;
68273;SDS011;55104;47.356;19.448;2022-07-15T16:48:38;4.03;;;1.20;;
68273;SDS011;55104;47.356;19.448;2022-07-15T16:51:41;4.20;;;1.23;;
68273;SDS011;55104;47.356;19.448;2022-07-15T16:54:43;4.78;;;1.30;;
68273;SDS011;55104;47.356;19.448;2022-07-15T16:57:45;3.97;;;1.25;;
68273;SDS011;55104;47.356;19.448;2022-07-15T17:00:47;4.60;;;1.40;;
68273;SDS011;55104;47.356;19.448;2022-07-15T17:03:49;4.37;;;1.20;;
68273;SDS011;55104;47.356;19.448;2022-07-15T17:06:52;4.78;;;1.20;;
68273;SDS011;55104;47.356;19.448;2022-07-15T17:09:54;5.07;;;1.23;;
68273;SDS011;55104;47.356;19.448;2022-07-15T17:12:56;4.15;;;1.15;;
68273;SDS011;55104;47.356;19.448;2022-07-15T17:15:59;4.50;;;1.10;;
68273;SDS011;55104;47.356;19.448;2022-07-15T17:19:01;5.27;;;1.10;;
68273;SDS011;55104;47.356;19.448;2022-07-15T17:22:03;5.35;;;1.30;;
68273;SDS011;55104;47.356;19.448;2022-07-15T17:25:06;7.22;;;1.35;;
68273;SDS011;55104;47.356;19.448;2022-07-15T17:28:08;6.35;;;1.20;;
68273;SDS011;55104;47.356;19.448;2022-07-15T17:31:11;4.28;;;1.27;;
68273;SDS011;55104;47.356;19.448;2022-07-15T17:34:13;7.93;;;1.30;;
68273;SDS011;55104;47.356;19.448;2022-07-15T17:37:16;5.15;;;1.55;;
68273;SDS011;55104;47.356;19.448;2022-07-15T17:40:18;4.68;;;1.42;;
68273;SDS011;55104;47.356;19.448;2022-07-15T17:43:20;4.85;;;1.30;;
68273;SDS011;55104;47.356;19.448;2022-07-15T17:46:22;5.60;;;1.20;;
68273;SDS011;55104;47.356;19.448;2022-07-15T17:49:24;4.33;;;1.10;;
68273;SDS011;55104;47.356;19.448;2022-07-15T17:52:26;6.10;;;1.40;;
68273;SDS011;55104;47.356;19.448;2022-07-15T17:55:29;7.45;;;1.00;;
68273;SDS011;55104;47.356;19.448;2022-07-15T17:58:31;7.65;;;1.20;;
68273;SDS011;55104;47.356;19.448;2022-07-15T18:01:33;4.63;;;1.25;;
68273;SDS011;55104;47.356;19.448;2022-07-15T18:04:36;4.87;;;0.90;;
68273;SDS011;55104;47.356;19.448;2022-07-15T18:07:38;7.07;;;1.30;;
68273;SDS011;55104;47.356;19.448;2022-07-15T18:10:40;6.68;;;1.38;;
68273;SDS011;55104;47.356;19.448;2022-07-15T18:13:43;5.78;;;1.30;;
68273;SDS011;55104;47.356;19.448;2022-07-15T18:16:45;6.90;;;1.60;;
68273;SDS011;55104;47.356;19.448;2022-07-15T18:19:48;10.47;;;2.10;;
68273;SDS011;55104;47.356;19.448;2022-07-15T18:22:50;8.35;;;2.42;;
68273;SDS011;55104;47.356;19.448;2022-07-15T18:25:52;14.55;;;3.20;;
68273;SDS011;55104;47.356;19.448;2022-07-15T18:28:54;16.02;;;3.58;;
68273;SDS011;55104;47.356;19.448;2022-07-15T18:31:56;11.57;;;3.55;;
68273;SDS011;55104;47.356;19.448;2022-07-15T18:34:59;8.97;;;1.90;;
68273;SDS011;55104;47.356;19.448;2022-07-15T18:38:01;8.25;;;1.40;;